This is the latest recevied weather packets stored in our database for station/object KL7LK-13. If no packets are shown the sender has not sent any weather packets the latest 10 day(s).
| Time | Temp. | Humidity | Pressure | Rain* | Wind** | Luminosity | Snow |
|---|---|---|---|---|---|---|---|
| 1777945982 | 11.67° C | 62% | 1028.8 hPa | - | - | 50 W/m² | - |
| 1777943007 | 12.22° C | 57% | 1029.5 hPa | - | - | 80 W/m² | - |
| 1777941808 | 12.78° C | 56% | 1029.9 hPa | - | - | 100 W/m² | - |
| 1777940527 | 12.78° C | 56% | 1030.2 hPa | - | - | 134 W/m² | - |
| 1777939411 | 12.22° C | 57% | 1030.5 hPa | - | - | 154 W/m² | - |
| 1777936928 | 12.78° C | 57% | 1031.3 hPa | - | - | 177 W/m² | - |
| 1777932816 | 12.22° C | 58% | 1032.6 hPa | - | - | 229 W/m² | - |
| 1777931577 | 12.22° C | 59% | 1033 hPa | - | - | 253 W/m² | - |
| 1777930957 | 11.67° C | 60% | 1033.2 hPa | - | - | 333 W/m² | - |
| 1777923767 | 10.56° C | 62% | 1035 hPa | - | - | 506 W/m² | - |
| 1777921411 | 9.44° C | 64% | 1035.5 hPa | - | - | 269 W/m² | - |
| 1777917196 | 8.33° C | 60% | 1036.3 hPa | - | - | 202 W/m² | - |
| 1777916576 | 8.33° C | 60% | 1036.4 hPa | - | - | 151 W/m² | - |
| 1777915957 | 8.33° C | 59% | 1036.4 hPa | - | - | 147 W/m² | - |
| 1777914717 | 7.78° C | 60% | 1036.5 hPa | - | - | 128 W/m² | - |
| 1777912979 | 7.78° C | 61% | 1036.7 hPa | - | - | 105 W/m² | - |
| 1777910623 | 6.67° C | 62% | 1036.9 hPa | - | - | 98 W/m² | - |
| 1777898478 | 2.78° C | 77% | 1036.9 hPa | - | - | 0 W/m² | - |
| 1777894883 | 3.33° C | 75% | 1037 hPa | - | - | 0 W/m² | - |
| 1777887073 | 3.89° C | 74% | 1037.6 hPa | - | - | 0 W/m² | - |
| 1777886577 | 3.89° C | 73% | 1037.7 hPa | - | - | 0 W/m² | - |
| 1777884099 | 4.44° C | 71% | 1037.9 hPa | - | - | 0 W/m² | - |
| 1777881146 | 5° C | 71% | 1038 hPa | - | - | 0 W/m² | - |
| 1777880506 | 5° C | 70% | 1038 hPa | - | - | 0 W/m² | - |
| 1777879927 | 5.56° C | 69% | 1038.1 hPa | - | - | 0 W/m² | - |
* Rain since midnight (hover to see other rain measurements)
** Current wind speed in m/s (hover to see current wind gust speed)